Time,TemperatureF,DewpointF,PressureIn,WindDirection,WindDirectionDegrees,WindSpeedMPH,WindSpeedGustMPH,Humidity,HourlyPrecipIn,Conditions,Clouds,dailyrainin,SoftwareType,DateUTC
2013-01-15 00:02:00,42.9,36.8,29.90,ENE,74,0.0,0.0,79,0.00,,,0.15,Wunderground v.1.15,2013-01-14 23:02:00,
2013-01-15 00:11:00,42.7,36.6,29.90,ENE,74,0.0,0.0,79,0.00,,,0.00,Wunderground v.1.15,2013-01-14 23:11:00,
2013-01-15 00:21:00,42.6,36.2,29.90,ENE,74,0.0,0.0,78,0.00,,,0.00,Wunderground v.1.15,2013-01-14 23:21:00,
2013-01-15 00:31:00,42.5,36.1,29.90,ENE,74,0.0,0.0,78,0.00,,,0.00,Wunderground v.1.15,2013-01-14 23:31:00,
2013-01-15 00:36:00,42.3,35.9,29.90,ENE,74,0.0,0.0,78,0.00,,,0.00,Wunderground v.1.15,2013-01-14 23:36:00,
2013-01-15 00:46:00,42.0,35.6,29.90,ENE,74,0.0,0.0,78,0.00,,,0.00,Wunderground v.1.15,2013-01-14 23:46:00,
2013-01-15 00:51:00,42.0,35.6,29.90,ENE,74,0.0,0.0,78,0.00,,,0.00,Wunderground v.1.15,2013-01-14 23:51:00,
2013-01-15 01:02:00,41.9,35.5,29.90,ENE,74,0.0,0.0,78,0.00,,,0.00,Wunderground v.1.15,2013-01-15 00:02:00,
2013-01-15 01:11:00,42.0,35.6,29.90,ENE,74,0.0,0.0,78,0.00,,,0.00,Wunderground v.1.15,2013-01-15 00:11:00,
2013-01-15 01:21:00,42.0,35.6,29.90,ENE,74,0.0,0.0,78,0.00,,,0.00,Wunderground v.1.15,2013-01-15 00:21:00,
2013-01-15 01:26:00,42.0,35.3,29.90,ENE,74,0.0,0.0,77,0.00,,,0.00,Wunderground v.1.15,2013-01-15 00:26:00,
2013-01-15 01:31:00,42.2,35.5,29.89,ENE,74,0.0,0.0,77,0.00,,,0.00,Wunderground v.1.15,2013-01-15 00:31:00,
2013-01-15 01:41:00,42.0,35.3,29.89,ENE,74,0.0,0.0,77,0.00,,,0.00,Wunderground v.1.15,2013-01-15 00:41:00,
2013-01-15 01:46:00,42.2,35.5,29.90,ENE,74,0.0,0.0,77,0.00,,,0.00,Wunderground v.1.15,2013-01-15 00:46:00,
2013-01-15 01:51:00,42.2,35.5,29.90,ENE,74,0.0,0.0,77,0.00,,,0.00,Wunderground v.1.15,2013-01-15 00:51:00,
2013-01-15 02:02:00,42.3,35.3,29.90,ENE,74,0.0,0.0,76,0.00,,,0.00,Wunderground v.1.15,2013-01-15 01:02:00,
2013-01-15 02:11:00,42.5,35.5,29.90,ENE,74,0.0,0.0,76,0.00,,,0.00,Wunderground v.1.15,2013-01-15 01:11:00,
2013-01-15 02:21:00,42.3,35.3,29.91,ENE,74,0.0,0.0,76,0.00,,,0.00,Wunderground v.1.15,2013-01-15 01:21:00,
2013-01-15 02:26:00,42.3,35.3,29.91,ENE,74,0.0,0.0,76,0.00,,,0.00,Wunderground v.1.15,2013-01-15 01:26:00,
2013-01-15 02:36:00,42.5,35.5,29.91,ENE,74,0.0,0.0,76,0.00,,,0.00,Wunderground v.1.15,2013-01-15 01:36:00,
2013-01-15 02:41:00,42.6,35.6,29.91,ENE,74,0.0,0.0,76,0.00,,,0.00,Wunderground v.1.15,2013-01-15 01:41:00,
2013-01-15 02:51:00,42.7,35.7,29.90,ENE,74,0.0,0.0,76,0.00,,,0.00,Wunderground v.1.15,2013-01-15 01:51:00,
2013-01-15 03:02:00,42.6,35.6,29.90,ENE,74,0.0,0.0,76,0.00,,,0.00,Wunderground v.1.15,2013-01-15 02:02:00,
2013-01-15 03:11:00,42.7,35.7,29.90,ENE,74,0.0,0.0,76,0.00,,,0.00,Wunderground v.1.15,2013-01-15 02:11:00,
2013-01-15 03:21:00,42.9,35.5,29.89,ENE,74,0.0,0.0,75,0.00,,,0.00,Wunderground v.1.15,2013-01-15 02:21:00,
2013-01-15 03:26:00,43.0,35.6,29.89,ENE,74,0.0,0.0,75,0.00,,,0.00,Wunderground v.1.15,2013-01-15 02:26:00,
2013-01-15 03:36:00,43.3,35.6,29.89,ENE,74,0.0,0.0,74,0.00,,,0.00,Wunderground v.1.15,2013-01-15 02:36:00,
2013-01-15 03:41:00,43.5,35.8,29.89,ENE,74,0.0,0.0,74,0.00,,,0.00,Wunderground v.1.15,2013-01-15 02:41:00,
2013-01-15 03:46:00,43.5,35.8,29.89,ENE,74,0.0,0.0,74,0.00,,,0.00,Wunderground v.1.15,2013-01-15 02:46:00,
2013-01-15 03:56:00,43.6,35.5,29.88,SSW,198,0.0,0.0,73,0.00,,,0.00,Wunderground v.1.15,2013-01-15 02:56:00,
2013-01-15 04:02:00,43.6,35.5,29.88,SSW,197,0.0,0.0,73,0.00,,,0.00,Wunderground v.1.15,2013-01-15 03:02:00,
2013-01-15 04:11:00,43.6,35.2,29.88,SSW,198,0.0,0.0,72,0.00,,,0.00,Wunderground v.1.15,2013-01-15 03:11:00,
2013-01-15 04:21:00,43.7,35.6,29.88,South,188,1.0,4.0,73,0.00,,,0.00,Wunderground v.1.15,2013-01-15 03:21:00,
2013-01-15 04:26:00,43.6,35.2,29.88,South,170,2.0,4.0,72,0.00,,,0.00,Wunderground v.1.15,2013-01-15 03:26:00,
2013-01-15 04:31:00,43.6,35.5,29.88,South,185,2.0,4.0,73,0.00,,,0.00,Wunderground v.1.15,2013-01-15 03:31:00,
2013-01-15 04:41:00,43.3,35.2,29.88,South,185,0.0,0.0,73,0.00,,,0.00,Wunderground v.1.15,2013-01-15 03:41:00,
2013-01-15 04:46:00,43.2,35.5,29.87,South,185,1.0,5.0,74,0.00,,,0.00,Wunderground v.1.15,2013-01-15 03:46:00,
2013-01-15 04:56:00,43.2,35.8,29.88,South,186,3.0,4.0,75,0.00,,,0.00,Wunderground v.1.15,2013-01-15 03:56:00,
2013-01-15 05:02:00,43.0,35.6,29.88,South,190,4.0,4.0,75,0.00,,,0.00,Wunderground v.1.15,2013-01-15 04:02:00,
2013-01-15 05:11:00,43.2,35.8,29.87,South,175,5.0,5.0,75,0.00,,,0.00,Wunderground v.1.15,2013-01-15 04:11:00,
2013-01-15 05:21:00,43.0,35.6,29.87,SSW,192,2.0,2.0,75,0.00,,,0.00,Wunderground v.1.15,2013-01-15 04:21:00,
2013-01-15 05:26:00,43.2,35.8,29.87,SSE,159,2.0,3.0,75,0.00,,,0.00,Wunderground v.1.15,2013-01-15 04:26:00,
2013-01-15 05:36:00,43.2,35.8,29.87,South,180,2.0,4.0,75,0.00,,,0.00,Wunderground v.1.15,2013-01-15 04:36:00,
2013-01-15 05:46:00,43.0,35.6,29.87,SSW,200,3.0,5.0,75,0.00,,,0.00,Wunderground v.1.15,2013-01-15 04:46:00,
2013-01-15 05:56:00,42.9,35.5,29.86,South,189,4.0,4.0,75,0.00,,,0.00,Wunderground v.1.15,2013-01-15 04:56:00,
2013-01-15 06:02:00,43.2,35.8,29.87,South,186,5.0,5.0,75,0.00,,,0.00,Wunderground v.1.15,2013-01-15 05:02:00,
2013-01-15 06:11:00,43.0,35.6,29.87,South,178,4.0,6.0,75,0.00,,,0.00,Wunderground v.1.15,2013-01-15 05:11:00,
2013-01-15 06:16:00,43.0,35.6,29.87,SE,138,4.0,7.0,75,0.00,,,0.00,Wunderground v.1.15,2013-01-15 05:16:00,
2013-01-15 06:21:00,43.2,35.8,29.87,South,174,3.0,3.0,75,0.00,,,0.00,Wunderground v.1.15,2013-01-15 05:21:00,
2013-01-15 06:26:00,42.9,35.5,29.87,South,172,3.0,5.0,75,0.00,,,0.00,Wunderground v.1.15,2013-01-15 05:26:00,
2013-01-15 06:31:00,43.0,36.0,29.87,South,169,5.0,5.0,76,0.00,,,0.00,Wunderground v.1.15,2013-01-15 05:31:00,
2013-01-15 06:36:00,43.0,35.6,29.88,South,169,5.0,7.0,75,0.00,,,0.00,Wunderground v.1.15,2013-01-15 05:36:00,
2013-01-15 06:46:00,43.2,35.8,29.88,South,178,5.0,7.0,75,0.00,,,0.00,Wunderground v.1.15,2013-01-15 05:46:00,
2013-01-15 06:51:00,43.3,36.2,29.88,SE,142,4.0,4.0,76,0.00,,,0.00,Wunderground v.1.15,2013-01-15 05:51:00,
2013-01-15 07:02:00,43.3,36.2,29.88,SSW,204,2.0,4.0,76,0.00,,,0.00,Wunderground v.1.15,2013-01-15 06:02:00,
2013-01-15 07:11:00,43.3,36.2,29.88,South,180,2.0,2.0,76,0.00,,,0.00,Wunderground v.1.15,2013-01-15 06:11:00,
2013-01-15 07:21:00,43.3,36.2,29.88,South,190,3.0,3.0,76,0.00,,,0.00,Wunderground v.1.15,2013-01-15 06:21:00,
2013-01-15 07:31:00,43.9,37.2,29.88,SE,139,3.0,4.0,77,0.00,,,0.00,Wunderground v.1.15,2013-01-15 06:31:00,
2013-01-15 07:36:00,43.7,37.0,29.88,SSW,194,5.0,5.0,77,0.00,,,0.00,Wunderground v.1.15,2013-01-15 06:36:00,
2013-01-15 07:46:00,43.9,37.2,29.88,ESE,113,2.0,7.0,77,0.00,,,0.00,Wunderground v.1.15,2013-01-15 06:46:00,
2013-01-15 07:51:00,43.9,37.2,29.88,ESE,119,2.0,2.0,77,0.00,,,0.00,Wunderground v.1.15,2013-01-15 06:51:00,
2013-01-15 07:56:00,43.7,37.0,29.88,ESE,119,1.0,2.0,77,0.00,,,0.00,Wunderground v.1.15,2013-01-15 06:56:00,
2013-01-15 09:02:00,44.9,38.5,29.88,SE,125,1.0,8.0,78,0.00,,,0.00,Wunderground v.1.15,2013-01-15 08:02:00,
2013-01-15 09:11:00,45.8,38.7,29.88,SE,133,5.0,5.0,76,0.00,,,0.00,Wunderground v.1.15,2013-01-15 08:11:00,
2013-01-15 09:21:00,45.5,38.0,29.88,South,174,2.0,2.0,75,0.00,,,0.00,Wunderground v.1.15,2013-01-15 08:21:00,
2013-01-15 09:31:00,45.9,38.1,29.88,SSE,148,4.0,6.0,74,0.00,,,0.00,Wunderground v.1.15,2013-01-15 08:31:00,
2013-01-15 09:41:00,46.4,38.2,29.88,SSE,150,1.0,5.0,73,0.00,,,0.00,Wunderground v.1.15,2013-01-15 08:41:00,
2013-01-15 09:46:00,46.2,38.0,29.88,SE,146,2.0,5.0,73,0.00,,,0.00,Wunderground v.1.15,2013-01-15 08:46:00,
2013-01-15 09:56:00,46.2,38.0,29.88,SE,145,1.0,2.0,73,0.00,,,0.00,Wunderground v.1.15,2013-01-15 08:56:00,
2013-01-15 10:02:00,46.5,38.3,29.88,SSE,148,1.0,1.0,73,0.00,,,0.00,Wunderground v.1.15,2013-01-15 09:02:00,
2013-01-15 10:16:00,46.8,37.5,29.87,SE,128,2.0,5.0,70,0.00,,,0.00,Wunderground v.1.15,2013-01-15 09:16:00,
2013-01-15 10:26:00,46.7,37.1,29.87,SE,140,2.0,9.0,69,0.00,,,0.00,Wunderground v.1.15,2013-01-15 09:26:00,
2013-01-15 10:37:00,47.0,37.4,29.87,ESE,115,5.0,8.0,69,0.00,,,0.00,Wunderground v.1.15,2013-01-15 09:37:00,
2013-01-15 10:46:00,47.0,37.4,29.86,ESE,113,6.0,6.0,69,0.00,,,0.00,Wunderground v.1.15,2013-01-15 09:46:00,
2013-01-15 10:56:00,47.1,37.1,29.86,SE,138,4.0,5.0,68,0.00,,,0.00,Wunderground v.1.15,2013-01-15 09:56:00,
2013-01-15 11:02:00,47.1,37.1,29.85,East,91,4.0,4.0,68,0.00,,,0.00,Wunderground v.1.15,2013-01-15 10:02:00,
2013-01-15 11:11:00,46.8,36.4,29.84,East,82,2.0,2.0,67,0.00,,,0.00,Wunderground v.1.15,2013-01-15 10:11:00,
2013-01-15 11:21:00,47.3,36.5,29.84,East,84,3.0,3.0,66,0.00,,,0.00,Wunderground v.1.15,2013-01-15 10:21:00,
2013-01-15 11:26:00,47.6,36.8,29.84,ENE,67,2.0,3.0,66,0.00,,,0.00,Wunderground v.1.15,2013-01-15 10:26:00,
2013-01-15 11:31:00,47.9,36.7,29.83,East,90,2.0,2.0,65,0.00,,,0.00,Wunderground v.1.15,2013-01-15 10:31:00,
2013-01-15 11:41:00,47.3,35.3,29.83,East,84,2.0,6.0,63,0.00,,,0.00,Wunderground v.1.15,2013-01-15 10:41:00,
2013-01-15 11:51:00,47.3,34.9,29.83,ENE,60,5.0,5.0,62,0.00,,,0.00,Wunderground v.1.15,2013-01-15 10:51:00,
2013-01-15 11:56:00,47.6,35.6,29.82,SE,138,3.0,5.0,63,0.00,,,0.00,Wunderground v.1.15,2013-01-15 10:56:00,
2013-01-15 12:02:00,47.4,35.0,29.82,ESE,122,2.0,2.0,62,0.00,,,0.00,Wunderground v.1.15,2013-01-15 11:02:00,
2013-01-15 12:11:00,47.4,35.4,29.81,East,81,1.0,1.0,63,0.00,,,0.00,Wunderground v.1.15,2013-01-15 11:11:00,
2013-01-15 12:16:00,47.3,34.9,29.81,East,88,1.0,1.0,62,0.00,,,0.00,Wunderground v.1.15,2013-01-15 11:16:00,
2013-01-15 12:21:00,47.6,36.0,29.81,East,89,1.0,1.0,64,0.00,,,0.00,Wunderground v.1.15,2013-01-15 11:21:00,
2013-01-15 12:31:00,47.4,34.6,29.81,NE,49,1.0,1.0,61,0.00,,,0.00,Wunderground v.1.15,2013-01-15 11:31:00,
2013-01-15 12:41:00,47.4,34.6,29.80,ENE,76,1.0,1.0,61,0.00,,,0.00,Wunderground v.1.15,2013-01-15 11:41:00,
2013-01-15 12:46:00,47.3,34.1,29.80,ESE,119,2.0,2.0,60,0.00,,,0.00,Wunderground v.1.15,2013-01-15 11:46:00,
2013-01-15 12:56:00,47.6,34.0,29.80,SSE,150,3.0,3.0,59,0.00,,,0.00,Wunderground v.1.15,2013-01-15 11:56:00,
2013-01-15 13:01:00,47.9,34.3,29.79,East,84,1.0,3.0,59,0.00,,,0.00,Wunderground v.1.15,2013-01-15 12:01:00,
2013-01-15 13:06:00,47.9,33.4,29.79,NNE,22,1.0,3.0,57,0.00,,,0.00,Wunderground v.1.15,2013-01-15 12:06:00,
2013-01-15 13:16:00,47.9,32.9,29.78,NE,55,1.0,2.0,56,0.00,,,0.00,Wunderground v.1.15,2013-01-15 12:16:00,
2013-01-15 13:26:00,47.9,32.9,29.78,ESE,115,0.0,7.0,56,0.00,,,0.00,Wunderground v.1.15,2013-01-15 12:26:00,
2013-01-15 13:31:00,47.7,32.8,29.77,ESE,121,2.0,2.0,56,0.00,,,0.00,Wunderground v.1.15,2013-01-15 12:31:00,
2013-01-15 13:41:00,47.7,32.8,29.77,ESE,104,0.0,0.0,56,0.00,,,0.00,Wunderground v.1.15,2013-01-15 12:41:00,
2013-01-15 13:46:00,47.7,33.2,29.77,ESE,105,0.0,0.0,57,0.00,,,0.00,Wunderground v.1.15,2013-01-15 12:46:00,
2013-01-15 13:56:00,47.7,32.8,29.76,ESE,105,0.0,5.0,56,0.00,,,0.00,Wunderground v.1.15,2013-01-15 12:56:00,
2013-01-15 14:02:00,47.9,33.4,29.76,ESE,107,1.0,1.0,57,0.00,,,0.00,Wunderground v.1.15,2013-01-15 13:02:00,
2013-01-15 14:11:00,47.6,33.1,29.76,ESE,113,4.0,4.0,57,0.00,,,0.00,Wunderground v.1.15,2013-01-15 13:11:00,
2013-01-15 14:16:00,47.6,33.1,29.76,ESE,113,2.0,4.0,57,0.00,,,0.00,Wunderground v.1.15,2013-01-15 13:16:00,
2013-01-15 14:21:00,47.6,33.1,29.75,ESE,115,2.0,2.0,57,0.00,,,0.00,Wunderground v.1.15,2013-01-15 13:21:00,
2013-01-15 14:31:00,47.4,32.0,29.75,ESE,103,3.0,3.0,55,0.00,,,0.00,Wunderground v.1.15,2013-01-15 13:31:00,
2013-01-15 14:41:00,47.6,31.3,29.75,East,98,2.0,2.0,53,0.00,,,0.00,Wunderground v.1.15,2013-01-15 13:41:00,
2013-01-15 14:51:00,47.7,31.4,29.75,SSW,192,0.0,0.0,53,0.00,,,0.00,Wunderground v.1.15,2013-01-15 13:51:00,
2013-01-15 15:02:00,47.9,32.0,29.75,ESE,107,0.0,3.0,54,0.00,,,0.00,Wunderground v.1.15,2013-01-15 14:02:00,
2013-01-15 15:11:00,47.7,32.3,29.75,NE,36,2.0,2.0,55,0.00,,,0.00,Wunderground v.1.15,2013-01-15 14:11:00,
2013-01-15 15:21:00,47.6,32.7,29.75,NE,46,0.0,0.0,56,0.00,,,0.00,Wunderground v.1.15,2013-01-15 14:21:00,
2013-01-15 15:31:00,47.3,31.9,29.75,SSE,159,1.0,4.0,55,0.00,,,0.00,Wunderground v.1.15,2013-01-15 14:31:00,
2013-01-15 15:41:00,47.1,30.8,29.75,East,94,3.0,5.0,53,0.00,,,0.00,Wunderground v.1.15,2013-01-15 14:41:00,
2013-01-15 15:51:00,46.7,32.3,29.75,East,92,3.0,3.0,57,0.00,,,0.00,Wunderground v.1.15,2013-01-15 14:51:00,
2013-01-15 16:02:00,45.5,34.8,29.75,NE,43,2.0,2.0,66,0.08,,,0.02,Wunderground v.1.15,2013-01-15 15:02:00,
2013-01-15 16:11:00,44.2,35.7,29.75,ESE,103,2.0,3.0,72,0.19,,,0.03,Wunderground v.1.15,2013-01-15 15:11:00,
2013-01-15 16:16:00,43.5,35.4,29.74,SSE,158,5.0,9.0,73,0.18,,,0.05,Wunderground v.1.15,2013-01-15 15:16:00,
2013-01-15 16:26:00,43.0,34.9,29.73,ESE,114,9.0,10.0,73,0.09,,,0.06,Wunderground v.1.15,2013-01-15 15:26:00,
2013-01-15 16:31:00,42.9,34.8,29.73,South,178,7.0,7.0,73,0.05,,,0.06,Wunderground v.1.15,2013-01-15 15:31:00,
2013-01-15 16:41:00,42.2,34.5,29.73,SSW,200,1.0,1.0,74,0.00,,,0.06,Wunderground v.1.15,2013-01-15 15:41:00,
2013-01-15 16:51:00,41.7,34.4,29.72,SSW,200,1.0,1.0,75,0.00,,,0.06,Wunderground v.1.15,2013-01-15 15:51:00,
2013-01-15 17:02:00,41.6,34.3,29.72,South,178,1.0,2.0,75,0.00,,,0.06,Wunderground v.1.15,2013-01-15 16:02:00,
2013-01-15 17:11:00,41.7,34.4,29.72,SSW,192,3.0,3.0,75,0.00,,,0.06,Wunderground v.1.15,2013-01-15 16:11:00,
2013-01-15 17:21:00,42.0,34.3,29.72,SSW,193,1.0,1.0,74,0.00,,,0.06,Wunderground v.1.15,2013-01-15 16:21:00,
2013-01-15 17:26:00,42.2,34.2,29.72,SSW,193,1.0,1.0,73,0.00,,,0.06,Wunderground v.1.15,2013-01-15 16:26:00,
2013-01-15 17:31:00,42.3,34.3,29.72,SSW,193,0.0,0.0,73,0.00,,,0.06,Wunderground v.1.15,2013-01-15 16:31:00,
2013-01-15 17:41:00,42.2,34.2,29.72,SSW,193,0.0,0.0,73,0.00,,,0.06,Wunderground v.1.15,2013-01-15 16:41:00,
2013-01-15 17:51:00,42.2,34.2,29.72,SSW,193,0.0,0.0,73,0.00,,,0.06,Wunderground v.1.15,2013-01-15 16:51:00,
2013-01-15 17:56:00,42.2,34.2,29.72,SSW,193,0.0,0.0,73,0.00,,,0.06,Wunderground v.1.15,2013-01-15 16:56:00,
2013-01-15 18:02:00,42.0,34.3,29.72,SSW,193,0.0,0.0,74,0.00,,,0.06,Wunderground v.1.15,2013-01-15 17:02:00,
2013-01-15 18:11:00,41.7,34.4,29.72,SSW,193,0.0,0.0,75,0.00,,,0.06,Wunderground v.1.15,2013-01-15 17:11:00,
2013-01-15 18:16:00,41.6,34.3,29.72,SSW,193,0.0,0.0,75,0.00,,,0.06,Wunderground v.1.15,2013-01-15 17:16:00,
2013-01-15 18:21:00,41.6,34.3,29.71,SSW,193,0.0,0.0,75,0.00,,,0.06,Wunderground v.1.15,2013-01-15 17:21:00,
2013-01-15 18:31:00,41.5,34.5,29.71,SSW,193,0.0,0.0,76,0.00,,,0.06,Wunderground v.1.15,2013-01-15 17:31:00,
2013-01-15 18:41:00,41.3,34.3,29.71,SSW,194,0.0,0.0,76,0.00,,,0.06,Wunderground v.1.15,2013-01-15 17:41:00,
2013-01-15 18:51:00,41.6,34.6,29.70,SSW,194,1.0,1.0,76,0.00,,,0.06,Wunderground v.1.15,2013-01-15 17:51:00,
2013-01-15 18:56:00,41.6,34.6,29.69,SSW,194,1.0,1.0,76,0.00,,,0.06,Wunderground v.1.15,2013-01-15 17:56:00,